createdAt,value
2018-07-20T00:01:41.807Z,6.72
2018-07-20T00:04:10.770Z,7.28
2018-07-20T00:06:39.114Z,7.47
2018-07-20T00:09:08.659Z,6.97
2018-07-20T00:11:37.290Z,7.33
2018-07-20T00:14:06.730Z,7.80
2018-07-20T00:16:35.916Z,7.70
2018-07-20T00:19:04.314Z,7.37
2018-07-20T00:21:32.868Z,7.45
2018-07-20T00:24:02.322Z,9.28
2018-07-20T00:26:31.059Z,7.50
2018-07-20T00:28:59.826Z,7.12
2018-07-20T00:31:28.910Z,7.35
2018-07-20T00:33:57.635Z,8.40
2018-07-20T00:36:26.299Z,7.05
2018-07-20T00:38:55.305Z,8.00
2018-07-20T00:41:24.402Z,7.92
2018-07-20T00:43:53.097Z,8.10
2018-07-20T00:46:21.786Z,7.20
2018-07-20T00:48:50.746Z,8.80
2018-07-20T00:51:19.563Z,8.18
2018-07-20T00:53:48.646Z,7.40
2018-07-20T00:56:17.752Z,7.87
2018-07-20T00:58:46.391Z,7.45
2018-07-20T01:01:15.118Z,7.70
2018-07-20T01:03:43.947Z,8.73
2018-07-20T01:06:13.235Z,8.05
2018-07-20T01:08:41.998Z,7.97
2018-07-20T01:11:10.691Z,7.58
2018-07-20T01:13:39.786Z,6.90
2018-07-20T01:16:08.880Z,7.37
2018-07-20T01:18:37.703Z,8.45
2018-07-20T01:21:06.667Z,6.97
2018-07-20T01:23:35.940Z,8.15
2018-07-20T01:26:04.851Z,7.92
2018-07-20T01:28:33.215Z,7.22
2018-07-20T01:31:02.220Z,8.55
2018-07-20T01:33:31.319Z,8.78
2018-07-20T01:36:00.423Z,7.95
2018-07-20T01:38:29.510Z,8.90
2018-07-20T01:40:58.379Z,8.38
2018-07-20T01:43:27.291Z,8.20
2018-07-20T01:45:55.978Z,9.25
2018-07-20T01:48:25.063Z,7.03
2018-07-20T01:50:54.191Z,7.60
2018-07-20T01:53:22.963Z,7.87
2018-07-20T01:55:51.534Z,8.48
2018-07-20T01:58:20.319Z,7.60
2018-07-20T02:00:49.235Z,7.97
2018-07-20T02:03:18.425Z,8.18
2018-07-20T02:05:47.511Z,8.58
2018-07-20T02:08:16.210Z,9.13
2018-07-20T02:10:44.883Z,10.60
2018-07-20T02:13:13.559Z,7.35
2018-07-20T02:15:43.007Z,8.80
2018-07-20T02:18:11.354Z,9.35
2018-07-20T02:20:40.446Z,7.85
2018-07-20T02:23:09.535Z,8.00
2018-07-20T02:25:38.646Z,8.05
2018-07-20T02:28:07.337Z,8.58
2018-07-20T02:30:36.023Z,8.08
2018-07-20T02:33:04.623Z,7.58
2018-07-20T02:35:33.805Z,7.83
2018-07-20T02:38:02.903Z,7.35
2018-07-20T02:40:31.987Z,8.70
2018-07-20T02:43:00.676Z,8.70
2018-07-20T02:45:29.491Z,8.20
2018-07-20T02:47:58.871Z,8.15
2018-07-20T02:50:28.288Z,7.55
2018-07-20T02:52:57.012Z,7.85
2018-07-20T02:55:26.154Z,6.97
2018-07-20T02:57:54.678Z,8.18
2018-07-20T03:00:23.523Z,8.68
2018-07-20T03:02:51.905Z,8.58
2018-07-20T03:05:20.934Z,8.83
2018-07-20T03:07:49.935Z,7.60
2018-07-20T03:10:19.103Z,7.92
2018-07-20T03:12:48.175Z,8.25
2018-07-20T03:15:16.874Z,8.65
2018-07-20T03:17:45.959Z,9.25
2018-07-20T03:20:15.051Z,7.70
2018-07-20T03:22:43.679Z,8.15
2018-07-20T03:25:12.901Z,8.23
2018-07-20T03:27:41.931Z,8.53
2018-07-20T03:30:10.615Z,8.15
2018-07-20T03:32:39.387Z,8.98
2018-07-20T03:35:08.102Z,8.55
2018-07-20T03:37:36.672Z,7.67
2018-07-20T03:40:05.367Z,9.15
2018-07-20T03:42:34.683Z,8.60
2018-07-20T03:45:03.971Z,8.63
2018-07-20T03:47:32.763Z,8.50
2018-07-20T03:50:01.750Z,8.18
2018-07-20T03:52:30.851Z,8.23
2018-07-20T03:54:59.946Z,9.15
2018-07-20T03:57:28.622Z,8.88
2018-07-20T03:59:57.651Z,8.83
2018-07-20T04:02:26.876Z,8.20
2018-07-20T04:04:55.510Z,8.93
2018-07-20T04:07:24.595Z,8.35
2018-07-20T04:09:53.706Z,8.73
2018-07-20T04:12:22.399Z,8.43
2018-07-20T04:14:51.504Z,8.63
2018-07-20T04:17:20.499Z,8.95
2018-07-20T04:19:49.266Z,9.18
2018-07-20T04:22:18.352Z,8.35
2018-07-20T04:24:47.396Z,7.72
2018-07-20T04:27:16.084Z,8.35
2018-07-20T04:29:45.233Z,7.87
2018-07-20T04:32:13.962Z,8.13
2018-07-20T04:34:42.662Z,9.68
2018-07-20T04:37:11.298Z,8.43
2018-07-20T04:39:40.387Z,9.38
2018-07-20T04:42:09.515Z,8.65
2018-07-20T04:44:38.479Z,9.43
2018-07-20T04:47:07.267Z,9.40
2018-07-20T04:49:35.963Z,9.05
2018-07-20T04:52:05.385Z,9.30
2018-07-20T04:54:34.559Z,8.60
2018-07-20T04:57:03.654Z,9.50
2018-07-20T04:59:32.747Z,8.78
2018-07-20T05:02:01.371Z,9.50
2018-07-20T05:04:30.514Z,8.93
2018-07-20T05:06:59.211Z,8.48
2018-07-20T05:09:27.931Z,9.23
2018-07-20T05:11:57.014Z,9.83
2018-07-20T05:14:26.082Z,10.03
2018-07-20T05:16:54.908Z,9.10
2018-07-20T05:19:23.564Z,9.28
2018-07-20T05:21:52.555Z,8.85
2018-07-20T05:24:21.599Z,8.60
2018-07-20T05:26:50.555Z,8.75
2018-07-20T05:29:19.031Z,9.15
2018-07-20T05:31:47.319Z,8.20
2018-07-20T05:34:16.407Z,9.43
2018-07-20T05:36:45.080Z,8.50
2018-07-20T05:39:13.749Z,9.53
2018-07-20T05:41:42.573Z,8.45
2018-07-20T05:44:11.583Z,8.35
2018-07-20T05:46:40.647Z,9.25
2018-07-20T05:49:09.323Z,8.33
2018-07-20T05:53:07.399Z,8.60
2018-07-20T05:55:36.338Z,8.08
2018-07-20T05:58:05.083Z,8.28
2018-07-20T06:00:34.196Z,8.30
2018-07-20T06:03:02.986Z,6.03
2018-07-20T06:05:32.033Z,7.42
2018-07-20T06:08:01.403Z,7.47
2018-07-20T06:10:30.097Z,7.87
2018-07-20T06:12:58.844Z,7.70
2018-07-20T06:15:27.939Z,7.15
2018-07-20T06:17:56.580Z,6.72
2018-07-20T06:20:26.060Z,8.33
2018-07-20T06:22:55.223Z,8.08
2018-07-20T06:25:24.331Z,6.47
2018-07-20T06:27:53.020Z,5.78
2018-07-20T06:30:22.107Z,6.42
2018-07-20T06:32:51.207Z,7.50
2018-07-20T06:35:19.892Z,6.70
2018-07-20T06:37:48.512Z,5.72
2018-07-20T06:40:16.957Z,5.60
2018-07-20T06:42:45.454Z,4.87
2018-07-20T06:45:14.227Z,5.20
2018-07-20T06:47:43.019Z,5.75
2018-07-20T06:50:16.517Z,5.40
2018-07-20T06:52:45.615Z,5.78
2018-07-20T06:55:14.301Z,5.20
2018-07-20T06:57:43.383Z,4.40
2018-07-20T07:00:12.180Z,5.65
2018-07-20T07:02:40.900Z,5.55
2018-07-20T07:05:10.719Z,5.30
2018-07-20T07:07:39.359Z,5.30
2018-07-20T07:10:09.282Z,5.65
2018-07-20T07:12:37.919Z,5.45
2018-07-20T07:15:07.040Z,5.75
2018-07-20T07:17:36.135Z,6.80
2018-07-20T07:20:04.849Z,6.85
2018-07-20T07:22:33.935Z,7.35
2018-07-20T07:25:02.624Z,5.95
2018-07-20T07:27:31.398Z,7.22
2018-07-20T07:30:00.111Z,5.75
2018-07-20T07:32:28.802Z,5.47
2018-07-20T07:34:57.587Z,5.60
2018-07-20T07:37:26.012Z,5.40
2018-07-20T07:39:55.083Z,5.53
2018-07-20T07:42:24.257Z,5.60
2018-07-20T07:44:53.333Z,6.53
2018-07-20T07:47:22.148Z,5.33
2018-07-20T07:49:51.131Z,5.50
2018-07-20T07:52:20.215Z,5.17
2018-07-20T07:54:49.334Z,4.20
2018-07-20T07:57:18.418Z,5.20
2018-07-20T07:59:47.025Z,5.30
2018-07-20T08:02:16.198Z,4.57
2018-07-20T08:04:45.279Z,4.63
2018-07-20T08:07:13.982Z,4.83
2018-07-20T08:09:43.095Z,4.70
2018-07-20T08:12:12.167Z,4.63
2018-07-20T08:14:41.264Z,5.10
2018-07-20T08:17:09.944Z,4.87
2018-07-20T08:19:39.042Z,5.40
2018-07-20T08:22:07.739Z,5.50
2018-07-20T08:24:36.334Z,4.70
2018-07-20T08:27:05.099Z,4.53
2018-07-20T08:29:33.825Z,6.03
2018-07-20T08:32:02.612Z,4.90
2018-07-20T08:34:31.567Z,4.50
2018-07-20T08:37:00.652Z,5.60
2018-07-20T08:39:29.755Z,5.53
2018-07-20T08:41:58.443Z,4.83
2018-07-20T08:44:27.543Z,4.57
2018-07-20T08:46:56.219Z,5.17
2018-07-20T08:49:24.927Z,5.13
2018-07-20T08:51:53.602Z,5.37
2018-07-20T08:54:22.379Z,5.13
2018-07-20T08:56:51.382Z,5.10
2018-07-20T08:59:20.155Z,5.10
2018-07-20T09:01:49.167Z,4.77
2018-07-20T09:04:17.955Z,5.00
2018-07-20T09:06:46.989Z,5.13
2018-07-20T09:09:15.639Z,4.10
2018-07-20T09:11:44.716Z,4.60
2018-07-20T09:14:13.816Z,4.37
2018-07-20T09:16:42.928Z,4.70
2018-07-20T09:19:11.707Z,4.13
2018-07-20T09:21:40.708Z,4.20
2018-07-20T09:24:09.783Z,4.77
2018-07-20T09:26:38.891Z,4.03
2018-07-20T09:29:07.983Z,6.10
2018-07-20T09:31:36.678Z,4.73
2018-07-20T09:34:05.775Z,4.53
2018-07-20T09:36:34.514Z,4.57
2018-07-20T09:39:04.611Z,5.07
2018-07-20T09:41:33.471Z,4.67
2018-07-20T09:44:02.565Z,4.83
2018-07-20T09:46:31.661Z,5.90
2018-07-20T09:49:00.759Z,4.40
2018-07-20T09:51:29.855Z,4.80
2018-07-20T09:53:58.870Z,5.63
2018-07-20T09:56:28.042Z,5.60
2018-07-20T09:58:57.143Z,5.33
2018-07-20T10:01:26.237Z,5.83
2018-07-20T10:03:54.955Z,4.93
2018-07-20T10:06:24.008Z,5.40
2018-07-20T10:08:53.519Z,4.53
2018-07-20T10:11:22.263Z,4.53
2018-07-20T10:13:51.292Z,4.90
2018-07-20T10:16:20.395Z,4.50
2018-07-20T10:18:49.496Z,5.43
2018-07-20T10:21:18.091Z,5.00
2018-07-20T10:23:46.859Z,4.97
2018-07-20T10:26:15.954Z,5.30
2018-07-20T10:28:44.987Z,4.80
2018-07-20T10:31:13.743Z,5.00
2018-07-20T10:33:42.837Z,5.10
2018-07-20T10:36:11.931Z,4.70
2018-07-20T10:38:41.025Z,4.20
2018-07-20T10:41:10.115Z,4.03
2018-07-20T10:43:39.219Z,5.33
2018-07-20T10:46:07.962Z,4.93
2018-07-20T10:48:36.945Z,4.83
2018-07-20T10:51:06.099Z,4.80
2018-07-20T10:53:35.195Z,4.87
2018-07-20T10:56:04.295Z,4.30
2018-07-20T10:58:33.082Z,4.30
2018-07-20T11:01:02.067Z,4.17
2018-07-20T11:03:31.187Z,4.47
2018-07-20T11:06:00.269Z,4.53
2018-07-20T11:08:29.358Z,5.00
2018-07-20T11:10:58.203Z,4.33
2018-07-20T11:13:26.867Z,4.27
2018-07-20T11:15:55.411Z,4.20
2018-07-20T11:18:24.512Z,4.10
2018-07-20T11:20:53.255Z,4.73
2018-07-20T11:23:22.294Z,4.73
2018-07-20T11:25:50.978Z,4.27
2018-07-20T11:28:20.080Z,4.20
2018-07-20T11:30:49.165Z,4.07
2018-07-20T11:33:18.287Z,4.70
2018-07-20T11:35:46.956Z,4.07
2018-07-20T11:38:15.660Z,4.50
2018-07-20T11:40:44.740Z,5.30
2018-07-20T11:43:13.827Z,3.97
2018-07-20T11:45:42.518Z,4.07
2018-07-20T11:48:11.618Z,4.20
2018-07-20T11:50:40.707Z,4.87
2018-07-20T11:53:09.399Z,4.40
2018-07-20T11:55:38.419Z,4.00
2018-07-20T11:58:06.984Z,3.70
2018-07-20T12:00:36.284Z,4.67
2018-07-20T12:03:05.368Z,3.83
2018-07-20T12:05:34.451Z,4.07
2018-07-20T12:08:03.151Z,4.23
2018-07-20T12:10:31.771Z,4.53
2018-07-20T12:13:01.680Z,3.40
2018-07-20T12:15:30.839Z,4.10
2018-07-20T12:17:59.532Z,3.40
2018-07-20T12:20:28.628Z,3.37
2018-07-20T12:22:57.008Z,3.50
2018-07-20T12:25:25.999Z,4.00
2018-07-20T12:27:55.095Z,3.60
2018-07-20T12:30:24.523Z,3.00
2018-07-20T12:32:53.297Z,4.23
2018-07-20T12:35:22.379Z,3.70
2018-07-20T12:37:51.475Z,3.10
2018-07-20T12:40:20.991Z,3.20
2018-07-20T12:42:50.080Z,3.13
2018-07-20T12:45:19.227Z,3.47
2018-07-20T12:47:48.611Z,3.90
2018-07-20T12:50:18.253Z,3.37
2018-07-20T12:52:47.292Z,3.70
2018-07-20T12:55:16.787Z,3.87
2018-07-20T12:57:45.887Z,3.87
2018-07-20T13:00:14.259Z,4.33
2018-07-20T13:02:43.254Z,4.00
2018-07-20T13:05:12.531Z,3.53
2018-07-20T13:07:41.155Z,4.07
2018-07-20T13:10:10.139Z,4.47
2018-07-20T13:12:39.231Z,4.43
2018-07-20T13:15:08.322Z,4.23
2018-07-20T13:17:37.026Z,4.30
2018-07-20T13:20:06.419Z,4.10
2018-07-20T13:22:35.959Z,5.17
2018-07-20T13:25:05.107Z,4.80
2018-07-20T13:27:34.217Z,4.60
2018-07-20T13:30:03.736Z,5.57
2018-07-20T13:32:32.821Z,5.10
2018-07-20T13:35:01.903Z,5.30
2018-07-20T13:37:30.999Z,5.90
2018-07-20T13:40:00.160Z,6.00
2018-07-20T13:42:29.284Z,5.83
2018-07-20T13:44:58.011Z,6.03
2018-07-20T13:47:26.819Z,5.63
2018-07-20T13:49:55.253Z,5.80
2018-07-20T13:52:24.371Z,6.40
2018-07-20T13:54:53.002Z,4.80
2018-07-20T13:57:22.191Z,5.70
2018-07-20T13:59:51.224Z,4.10
2018-07-20T14:02:20.315Z,5.47
2018-07-20T14:04:49.420Z,5.90
2018-07-20T14:07:18.510Z,6.20
2018-07-20T14:09:47.615Z,6.73
2018-07-20T14:12:16.296Z,6.00
2018-07-20T14:14:45.602Z,5.40
2018-07-20T14:17:14.487Z,5.83
2018-07-20T14:19:43.168Z,5.53
2018-07-20T14:22:12.267Z,5.00
2018-07-20T14:24:41.259Z,4.80
2018-07-20T14:27:10.464Z,5.23
2018-07-20T14:29:39.547Z,5.30
2018-07-20T14:32:08.719Z,4.33
2018-07-20T14:34:38.555Z,5.40
2018-07-20T14:37:07.004Z,4.77
2018-07-20T14:39:35.975Z,4.50
2018-07-20T14:42:04.923Z,5.17
2018-07-20T14:44:33.716Z,4.00
2018-07-20T14:47:02.820Z,5.10
2018-07-20T14:49:32.033Z,4.03
2018-07-20T14:52:00.639Z,4.87
2018-07-20T14:54:29.691Z,4.50
2018-07-20T14:56:58.787Z,4.13
2018-07-20T14:59:27.887Z,4.73
2018-07-20T15:01:56.975Z,4.77
2018-07-20T15:04:26.076Z,4.87
2018-07-20T15:06:55.318Z,4.47
2018-07-20T15:09:24.272Z,4.97
2018-07-20T15:11:53.088Z,4.47
2018-07-20T15:14:22.043Z,4.60
2018-07-20T15:16:50.737Z,5.20
2018-07-20T15:19:19.831Z,4.40
2018-07-20T15:21:48.921Z,5.43
2018-07-20T15:24:18.479Z,5.07
2018-07-20T15:26:47.533Z,4.93
2018-07-20T15:29:16.219Z,4.37
2018-07-20T15:31:45.307Z,5.33
2018-07-20T15:34:14.449Z,5.27
2018-07-20T15:36:43.191Z,6.20
2018-07-20T15:39:12.227Z,5.60
2018-07-20T15:41:41.108Z,5.57
2018-07-20T15:44:09.963Z,7.00
2018-07-20T15:46:39.103Z,6.23
2018-07-20T15:49:08.568Z,6.17
2018-07-20T15:53:35.203Z,7.57
2018-07-20T15:54:07.216Z,6.40
2018-07-20T15:56:36.259Z,5.90
2018-07-20T15:59:05.691Z,6.70
2018-07-20T16:01:34.875Z,6.50
2018-07-20T16:04:03.652Z,6.80
2018-07-20T16:06:32.644Z,6.60
2018-07-20T16:09:01.735Z,5.10
2018-07-20T16:11:30.867Z,6.23
2018-07-20T16:13:59.619Z,6.50
2018-07-20T16:16:28.863Z,5.97
2018-07-20T16:18:57.715Z,5.27
2018-07-20T16:21:26.508Z,5.90
2018-07-20T16:23:55.111Z,6.33
2018-07-20T16:26:24.179Z,6.50
2018-07-20T16:28:53.279Z,5.13
2018-07-20T16:31:22.375Z,5.83
2018-07-20T16:33:50.859Z,5.73
2018-07-20T16:36:19.998Z,5.90
2018-07-20T16:38:48.845Z,5.70
2018-07-20T16:41:18.005Z,5.53
2018-07-20T16:43:47.051Z,5.50
2018-07-20T16:46:16.135Z,5.63
2018-07-20T16:48:45.511Z,5.40
2018-07-20T16:51:14.603Z,6.00
2018-07-20T16:53:43.408Z,6.07
2018-07-20T16:56:12.508Z,5.83
2018-07-20T16:58:41.303Z,5.27
2018-07-20T17:01:10.299Z,5.60
2018-07-20T17:03:38.987Z,6.20
2018-07-20T17:06:08.076Z,5.90
2018-07-20T17:08:37.544Z,4.97
2018-07-20T17:11:06.682Z,5.60
2018-07-20T17:13:35.576Z,6.00
2018-07-20T17:16:04.483Z,5.27
2018-07-20T17:18:33.555Z,4.60
2018-07-20T17:21:02.643Z,5.10
2018-07-20T17:23:31.748Z,5.30
2018-07-20T17:26:01.185Z,5.10
2018-07-20T17:28:30.347Z,5.60
2018-07-20T17:30:59.439Z,5.17
2018-07-20T17:33:28.553Z,4.80
2018-07-20T17:35:57.636Z,4.77
2018-07-20T17:38:26.733Z,4.43
2018-07-20T17:40:55.831Z,5.27
2018-07-20T17:43:24.719Z,4.57
2018-07-20T17:45:53.266Z,4.90
2018-07-20T17:48:22.301Z,5.00
2018-07-20T17:50:51.391Z,5.10
2018-07-20T17:53:20.489Z,5.50
2018-07-20T17:55:49.279Z,6.40
2018-07-20T17:58:18.260Z,6.23
2018-07-20T18:00:47.383Z,5.43
2018-07-20T18:03:16.460Z,5.50
2018-07-20T18:05:45.559Z,5.87
2018-07-20T18:08:14.651Z,5.33
2018-07-20T18:10:43.744Z,5.60
2018-07-20T18:13:12.848Z,5.47
2018-07-20T18:15:41.680Z,5.60
2018-07-20T18:18:11.124Z,4.90
2018-07-20T18:20:40.123Z,5.00
2018-07-20T18:23:09.216Z,4.90
2018-07-20T18:25:38.359Z,6.10
2018-07-20T18:28:07.417Z,5.37
2018-07-20T18:30:36.515Z,5.40
2018-07-20T18:33:05.621Z,5.83
2018-07-20T18:35:34.847Z,5.70
2018-07-20T18:38:03.819Z,5.63
2018-07-20T18:40:32.191Z,5.60
2018-07-20T18:43:01.174Z,5.57
2018-07-20T18:45:30.267Z,6.17
2018-07-20T18:47:59.361Z,5.80
2018-07-20T18:50:28.453Z,5.80
2018-07-20T18:52:57.242Z,6.23
2018-07-20T18:55:26.243Z,6.80
2018-07-20T18:57:55.351Z,6.10
2018-07-20T19:00:24.431Z,6.43
2018-07-20T19:02:53.533Z,6.30
2018-07-20T19:05:22.292Z,6.87
2018-07-20T19:07:51.304Z,7.40
2018-07-20T19:10:20.463Z,6.73
2018-07-20T19:12:49.491Z,7.97
2018-07-20T19:15:18.953Z,7.00
2018-07-20T19:17:48.101Z,6.83
2018-07-20T19:20:17.196Z,7.55
2018-07-20T19:22:46.304Z,6.93
2018-07-20T19:25:15.403Z,7.75
2018-07-20T19:27:44.512Z,6.87
2018-07-20T19:30:13.579Z,6.77
2018-07-20T19:32:42.628Z,7.85
2018-07-20T19:35:11.369Z,7.28
2018-07-20T19:37:40.462Z,8.80
2018-07-20T19:40:09.144Z,7.15
2018-07-20T19:42:38.239Z,6.80
2018-07-20T19:45:07.391Z,7.65
2018-07-20T19:47:36.435Z,7.75
2018-07-20T19:50:05.282Z,6.95
2018-07-20T19:52:34.208Z,6.85
2018-07-20T19:55:03.308Z,7.22
2018-07-20T19:57:31.929Z,7.25
2018-07-20T20:00:01.092Z,9.05
2018-07-20T20:02:29.913Z,7.37
2018-07-20T20:04:58.888Z,7.65
2018-07-20T20:07:27.978Z,7.53
2018-07-20T20:09:57.055Z,7.85
2018-07-20T20:12:26.166Z,8.93
2018-07-20T20:14:55.252Z,8.00
2018-07-20T20:17:24.345Z,8.35
2018-07-20T20:19:53.784Z,6.95
2018-07-20T20:22:22.660Z,6.40
2018-07-20T20:24:51.615Z,7.25
2018-07-20T20:27:20.223Z,7.35
2018-07-20T20:29:49.013Z,7.50
2018-07-20T20:32:18.095Z,6.62
2018-07-20T20:34:47.195Z,7.35
2018-07-20T20:37:16.396Z,8.30
2018-07-20T20:39:45.395Z,6.75
2018-07-20T20:42:14.491Z,6.60
2018-07-20T20:44:43.580Z,6.60
2018-07-20T20:47:12.688Z,6.75
2018-07-20T20:49:42.188Z,7.15
2018-07-20T20:52:11.271Z,7.40
2018-07-20T20:54:40.404Z,6.95
2018-07-20T20:57:09.479Z,6.65
2018-07-20T20:59:38.572Z,7.70
2018-07-20T21:02:07.665Z,7.15
2018-07-20T21:04:36.595Z,7.22
2018-07-20T21:07:05.439Z,7.35
2018-07-20T21:09:34.539Z,7.30
2018-07-20T21:12:03.747Z,7.83
2018-07-20T21:14:32.728Z,7.72
2018-07-20T21:17:01.830Z,8.50
2018-07-20T21:19:30.976Z,8.88
2018-07-20T21:22:00.017Z,8.45
2018-07-20T21:24:29.174Z,7.83
2018-07-20T21:26:58.208Z,8.45
2018-07-20T21:29:27.315Z,7.87
2018-07-20T21:31:56.404Z,8.28
2018-07-20T21:34:25.504Z,7.72
2018-07-20T21:36:55.012Z,9.68
2018-07-20T21:39:23.616Z,9.08
2018-07-20T21:41:52.835Z,8.98
2018-07-20T21:44:21.880Z,8.23
2018-07-20T21:46:50.979Z,9.00
2018-07-20T21:49:20.064Z,6.75
2018-07-20T21:51:49.171Z,9.35
2018-07-20T21:54:18.203Z,9.13
2018-07-20T21:56:47.372Z,8.60
2018-07-20T21:59:16.783Z,9.28
2018-07-20T22:01:45.971Z,8.95
2018-07-20T22:04:15.061Z,8.78
2018-07-20T22:06:44.147Z,8.83
2018-07-20T22:09:13.256Z,9.03
2018-07-20T22:11:42.355Z,9.18
2018-07-20T22:14:11.435Z,9.18
2018-07-20T22:16:40.552Z,9.28
2018-07-20T22:19:09.628Z,9.30
2018-07-20T22:21:38.719Z,8.45
2018-07-20T22:24:07.817Z,9.98
2018-07-20T22:26:36.920Z,10.03
2018-07-20T22:29:06.003Z,9.50
2018-07-20T22:31:34.832Z,10.65
2018-07-20T22:34:03.858Z,10.35
2018-07-20T22:36:32.899Z,10.10
2018-07-20T22:39:01.987Z,9.35
2018-07-20T22:41:31.092Z,9.93
2018-07-20T22:44:00.176Z,10.08
2018-07-20T22:46:29.416Z,10.13
2018-07-20T22:48:58.369Z,10.70
2018-07-20T22:51:27.467Z,9.48
2018-07-20T22:53:56.567Z,10.53
2018-07-20T22:56:25.659Z,11.22
2018-07-20T22:58:54.802Z,10.20
2018-07-20T23:01:23.848Z,10.05
2018-07-20T23:03:52.947Z,11.78
2018-07-20T23:06:22.343Z,10.72
2018-07-20T23:08:51.135Z,11.05
2018-07-20T23:11:20.291Z,10.58
2018-07-20T23:13:49.735Z,11.53
2018-07-20T23:16:18.555Z,11.35
2018-07-20T23:18:47.511Z,11.43
2018-07-20T23:21:16.607Z,10.80
2018-07-20T23:23:45.729Z,11.68
2018-07-20T23:26:14.811Z,11.70
2018-07-20T23:28:43.956Z,12.37
2018-07-20T23:31:12.996Z,11.95
2018-07-20T23:33:42.093Z,11.33
2018-07-20T23:36:11.188Z,12.70
2018-07-20T23:38:39.875Z,11.28
2018-07-20T23:41:08.971Z,11.10
2018-07-20T23:43:37.759Z,11.12
2018-07-20T23:46:06.791Z,12.85
2018-07-20T23:48:35.397Z,12.95
2018-07-20T23:51:04.540Z,12.30
2018-07-20T23:53:33.627Z,11.97
2018-07-20T23:56:02.731Z,13.13
2018-07-20T23:58:31.818Z,12.18
